sensor_id;sensor_type;location;lat;lon;timestamp;pressure;altitude;pressure_sealevel;temperature;humidity
11448;BME280;43755;49.736;8.734;2024-02-26T00:00:07;95993.41;;;7.73;85.19
11448;BME280;43755;49.736;8.734;2024-02-26T00:02:10;96000.94;;;7.79;85.35
11448;BME280;43755;49.736;8.734;2024-02-26T00:04:12;95998.34;;;7.65;84.40
11448;BME280;43755;49.736;8.734;2024-02-26T00:06:13;95988.00;;;7.62;83.06
11448;BME280;43755;49.736;8.734;2024-02-26T00:08:14;95979.63;;;7.70;80.15
11448;BME280;43755;49.736;8.734;2024-02-26T00:10:15;95975.94;;;7.72;81.75
11448;BME280;43755;49.736;8.734;2024-02-26T00:12:17;95953.75;;;7.76;81.12
11448;BME280;43755;49.736;8.734;2024-02-26T00:14:18;95954.03;;;7.72;79.33
11448;BME280;43755;49.736;8.734;2024-02-26T00:16:19;95955.34;;;7.79;79.53
11448;BME280;43755;49.736;8.734;2024-02-26T00:18:22;95956.28;;;7.78;78.55
11448;BME280;43755;49.736;8.734;2024-02-26T00:20:23;95953.75;;;7.76;79.62
11448;BME280;43755;49.736;8.734;2024-02-26T00:22:24;95960.41;;;7.82;79.49
11448;BME280;43755;49.736;8.734;2024-02-26T00:24:25;95960.97;;;7.87;77.90
11448;BME280;43755;49.736;8.734;2024-02-26T00:26:27;95968.66;;;7.90;74.40
11448;BME280;43755;49.736;8.734;2024-02-26T00:28:28;95973.34;;;7.99;73.54
11448;BME280;43755;49.736;8.734;2024-02-26T00:30:30;95985.31;;;8.17;68.62
11448;BME280;43755;49.736;8.734;2024-02-26T00:32:31;95981.22;;;8.26;70.16
11448;BME280;43755;49.736;8.734;2024-02-26T00:34:34;95974.66;;;8.19;73.31
11448;BME280;43755;49.736;8.734;2024-02-26T00:36:35;95976.69;;;8.01;73.92
11448;BME280;43755;49.736;8.734;2024-02-26T00:38:37;95975.44;;;7.94;75.13
11448;BME280;43755;49.736;8.734;2024-02-26T00:40:39;95974.59;;;7.94;73.91
11448;BME280;43755;49.736;8.734;2024-02-26T00:42:41;95965.00;;;7.93;76.85
11448;BME280;43755;49.736;8.734;2024-02-26T00:44:45;95962.66;;;7.88;75.00
11448;BME280;43755;49.736;8.734;2024-02-26T00:46:47;95971.41;;;7.89;73.96
11448;BME280;43755;49.736;8.734;2024-02-26T00:48:48;95974.72;;;8.05;70.24
11448;BME280;43755;49.736;8.734;2024-02-26T00:50:51;95977.81;;;8.11;71.72
11448;BME280;43755;49.736;8.734;2024-02-26T00:52:53;95961.75;;;8.02;72.77
11448;BME280;43755;49.736;8.734;2024-02-26T00:54:54;95956.03;;;7.95;75.42
11448;BME280;43755;49.736;8.734;2024-02-26T00:56:55;95951.59;;;7.96;75.42
11448;BME280;43755;49.736;8.734;2024-02-26T00:58:58;95950.03;;;7.93;73.89
11448;BME280;43755;49.736;8.734;2024-02-26T01:00:59;95960.66;;;7.92;75.05
11448;BME280;43755;49.736;8.734;2024-02-26T01:03:00;95954.06;;;7.99;70.98
11448;BME280;43755;49.736;8.734;2024-02-26T01:05:04;95963.03;;;8.09;69.07
11448;BME280;43755;49.736;8.734;2024-02-26T01:07:09;95964.59;;;7.99;72.05
11448;BME280;43755;49.736;8.734;2024-02-26T01:09:10;95967.38;;;8.10;69.27
11448;BME280;43755;49.736;8.734;2024-02-26T01:11:11;95966.53;;;8.09;70.19
11448;BME280;43755;49.736;8.734;2024-02-26T01:13:13;95964.75;;;8.10;70.42
11448;BME280;43755;49.736;8.734;2024-02-26T01:15:14;95966.44;;;8.11;68.31
11448;BME280;43755;49.736;8.734;2024-02-26T01:17:16;95969.78;;;8.13;68.08
11448;BME280;43755;49.736;8.734;2024-02-26T01:19:17;95968.56;;;8.18;66.48
11448;BME280;43755;49.736;8.734;2024-02-26T01:21:19;95964.13;;;8.19;67.29
11448;BME280;43755;49.736;8.734;2024-02-26T01:23:21;95963.50;;;8.15;67.96
11448;BME280;43755;49.736;8.734;2024-02-26T01:25:22;95960.75;;;8.17;68.82
11448;BME280;43755;49.736;8.734;2024-02-26T01:27:23;95961.25;;;8.09;68.72
11448;BME280;43755;49.736;8.734;2024-02-26T01:29:27;95964.75;;;8.10;70.08
11448;BME280;43755;49.736;8.734;2024-02-26T01:31:32;95964.19;;;8.05;70.78
11448;BME280;43755;49.736;8.734;2024-02-26T01:33:33;95967.59;;;8.07;70.73
11448;BME280;43755;49.736;8.734;2024-02-26T01:35:34;95967.88;;;8.02;71.34
11448;BME280;43755;49.736;8.734;2024-02-26T01:37:36;95961.75;;;8.02;70.72
11448;BME280;43755;49.736;8.734;2024-02-26T01:39:39;95965.75;;;7.95;71.52
11448;BME280;43755;49.736;8.734;2024-02-26T01:41:41;95960.88;;;7.89;71.77
11448;BME280;43755;49.736;8.734;2024-02-26T01:43:42;95987.44;;;7.98;68.15
11448;BME280;43755;49.736;8.734;2024-02-26T01:45:43;95983.88;;;7.99;70.24
11448;BME280;43755;49.736;8.734;2024-02-26T01:47:45;95985.69;;;7.85;72.25
11448;BME280;43755;49.736;8.734;2024-02-26T01:49:45;95985.03;;;7.81;72.63
11448;BME280;43755;49.736;8.734;2024-02-26T01:51:47;95976.22;;;7.82;73.70
11448;BME280;43755;49.736;8.734;2024-02-26T01:53:48;95983.34;;;7.80;73.21
11448;BME280;43755;49.736;8.734;2024-02-26T01:55:50;95977.25;;;7.79;74.82
11448;BME280;43755;49.736;8.734;2024-02-26T01:57:52;95990.22;;;7.82;75.32
11448;BME280;43755;49.736;8.734;2024-02-26T01:59:54;95980.25;;;7.73;75.58
11448;BME280;43755;49.736;8.734;2024-02-26T02:01:58;95988.44;;;7.69;75.63
11448;BME280;43755;49.736;8.734;2024-02-26T02:04:00;95988.53;;;7.67;75.34
11448;BME280;43755;49.736;8.734;2024-02-26T02:06:02;95989.09;;;7.72;74.22
11448;BME280;43755;49.736;8.734;2024-02-26T02:08:04;95995.72;;;7.65;74.75
11448;BME280;43755;49.736;8.734;2024-02-26T02:10:07;95988.16;;;7.73;74.82
11448;BME280;43755;49.736;8.734;2024-02-26T02:12:11;95986.00;;;7.66;75.69
11448;BME280;43755;49.736;8.734;2024-02-26T02:14:12;95997.38;;;7.66;75.34
11448;BME280;43755;49.736;8.734;2024-02-26T02:16:14;95995.78;;;7.64;74.97
11448;BME280;43755;49.736;8.734;2024-02-26T02:18:15;95995.13;;;7.60;76.81
11448;BME280;43755;49.736;8.734;2024-02-26T02:20:17;95991.00;;;7.56;76.62
11448;BME280;43755;49.736;8.734;2024-02-26T02:22:19;95993.72;;;7.55;77.70
11448;BME280;43755;49.736;8.734;2024-02-26T02:24:21;96007.00;;;7.53;76.49
11448;BME280;43755;49.736;8.734;2024-02-26T02:26:22;96000.31;;;7.62;77.24
11448;BME280;43755;49.736;8.734;2024-02-26T02:28:25;96002.09;;;7.61;77.61
11448;BME280;43755;49.736;8.734;2024-02-26T02:30:29;96004.44;;;7.52;78.16
11448;BME280;43755;49.736;8.734;2024-02-26T02:32:30;96010.25;;;7.43;79.19
11448;BME280;43755;49.736;8.734;2024-02-26T02:34:32;96009.53;;;7.40;80.39
11448;BME280;43755;49.736;8.734;2024-02-26T02:36:34;96010.75;;;7.35;81.26
11448;BME280;43755;49.736;8.734;2024-02-26T02:38:37;96007.28;;;7.34;82.34
11448;BME280;43755;49.736;8.734;2024-02-26T02:40:38;96011.03;;;7.30;82.04
11448;BME280;43755;49.736;8.734;2024-02-26T02:42:39;96011.88;;;7.31;80.40
11448;BME280;43755;49.736;8.734;2024-02-26T02:44:41;96013.94;;;7.40;80.68
11448;BME280;43755;49.736;8.734;2024-02-26T02:46:43;96015.25;;;7.33;82.05
11448;BME280;43755;49.736;8.734;2024-02-26T02:48:44;96018.81;;;7.32;82.99
11448;BME280;43755;49.736;8.734;2024-02-26T02:50:45;96023.06;;;7.34;80.87
11448;BME280;43755;49.736;8.734;2024-02-26T02:52:47;96029.34;;;7.32;82.04
11448;BME280;43755;49.736;8.734;2024-02-26T02:54:51;96031.44;;;7.41;79.02
11448;BME280;43755;49.736;8.734;2024-02-26T02:56:52;96023.78;;;7.36;79.40
11448;BME280;43755;49.736;8.734;2024-02-26T02:58:54;96032.38;;;7.40;80.55
11448;BME280;43755;49.736;8.734;2024-02-26T03:00:55;96024.66;;;7.37;81.46
11448;BME280;43755;49.736;8.734;2024-02-26T03:02:57;96031.03;;;7.33;81.29
11448;BME280;43755;49.736;8.734;2024-02-26T03:04:58;96028.13;;;7.37;81.88
11448;BME280;43755;49.736;8.734;2024-02-26T03:06:59;96032.53;;;7.37;82.34
11448;BME280;43755;49.736;8.734;2024-02-26T03:09:01;96032.91;;;7.31;83.38
11448;BME280;43755;49.736;8.734;2024-02-26T03:11:04;96041.75;;;7.30;83.61
11448;BME280;43755;49.736;8.734;2024-02-26T03:13:06;96038.00;;;7.34;85.43
11448;BME280;43755;49.736;8.734;2024-02-26T03:15:08;96028.50;;;7.31;85.88
11448;BME280;43755;49.736;8.734;2024-02-26T03:17:08;96038.66;;;7.23;88.42
11448;BME280;43755;49.736;8.734;2024-02-26T03:19:10;96029.44;;;7.16;91.56
11448;BME280;43755;49.736;8.734;2024-02-26T03:21:11;96035.72;;;7.14;94.65
11448;BME280;43755;49.736;8.734;2024-02-26T03:23:12;96034.41;;;7.07;95.08
11448;BME280;43755;49.736;8.734;2024-02-26T03:25:15;96039.66;;;7.21;95.14
11448;BME280;43755;49.736;8.734;2024-02-26T03:27:17;96033.94;;;7.14;96.16
11448;BME280;43755;49.736;8.734;2024-02-26T03:29:18;96028.13;;;7.09;95.94
11448;BME280;43755;49.736;8.734;2024-02-26T03:31:19;96028.69;;;7.00;96.98
11448;BME280;43755;49.736;8.734;2024-02-26T03:33:21;96028.47;;;6.89;99.07
11448;BME280;43755;49.736;8.734;2024-02-26T03:35:23;96035.50;;;6.88;100.00
11448;BME280;43755;49.736;8.734;2024-02-26T03:37:24;96033.03;;;6.85;100.00
11448;BME280;43755;49.736;8.734;2024-02-26T03:39:26;96037.53;;;6.83;100.00
11448;BME280;43755;49.736;8.734;2024-02-26T03:41:27;96033.31;;;6.81;100.00
11448;BME280;43755;49.736;8.734;2024-02-26T03:43:30;96038.09;;;6.74;100.00
11448;BME280;43755;49.736;8.734;2024-02-26T03:45:32;96028.94;;;6.66;100.00
11448;BME280;43755;49.736;8.734;2024-02-26T03:47:33;96035.53;;;6.58;100.00
11448;BME280;43755;49.736;8.734;2024-02-26T03:49:35;96041.78;;;6.56;100.00
11448;BME280;43755;49.736;8.734;2024-02-26T03:51:36;96042.84;;;6.53;100.00
11448;BME280;43755;49.736;8.734;2024-02-26T03:53:38;96033.59;;;6.46;100.00
11448;BME280;43755;49.736;8.734;2024-02-26T03:55:39;96031.41;;;6.39;100.00
11448;BME280;43755;49.736;8.734;2024-02-26T03:57:41;96027.63;;;6.29;100.00
11448;BME280;43755;49.736;8.734;2024-02-26T03:59:44;96040.56;;;6.32;100.00
11448;BME280;43755;49.736;8.734;2024-02-26T04:01:46;96042.53;;;6.28;100.00
11448;BME280;43755;49.736;8.734;2024-02-26T04:03:48;96038.28;;;6.26;100.00
11448;BME280;43755;49.736;8.734;2024-02-26T04:05:49;96037.56;;;6.24;100.00
11448;BME280;43755;49.736;8.734;2024-02-26T04:07:51;96033.16;;;6.24;100.00
11448;BME280;43755;49.736;8.734;2024-02-26T04:09:53;96038.81;;;6.16;100.00
11448;BME280;43755;49.736;8.734;2024-02-26T04:11:55;96031.03;;;6.15;100.00
11448;BME280;43755;49.736;8.734;2024-02-26T04:13:56;96029.44;;;6.12;100.00
11448;BME280;43755;49.736;8.734;2024-02-26T04:15:59;96027.06;;;6.08;100.00
11448;BME280;43755;49.736;8.734;2024-02-26T04:18:01;96030.94;;;6.01;100.00
11448;BME280;43755;49.736;8.734;2024-02-26T04:20:04;96031.56;;;6.06;100.00
11448;BME280;43755;49.736;8.734;2024-02-26T04:22:05;96030.78;;;6.04;100.00
11448;BME280;43755;49.736;8.734;2024-02-26T04:24:07;96035.44;;;5.99;100.00
11448;BME280;43755;49.736;8.734;2024-02-26T04:26:08;96027.72;;;5.96;100.00
11448;BME280;43755;49.736;8.734;2024-02-26T04:28:09;96032.31;;;5.92;100.00
11448;BME280;43755;49.736;8.734;2024-02-26T04:30:11;96030.69;;;5.90;100.00
11448;BME280;43755;49.736;8.734;2024-02-26T04:32:14;96036.06;;;5.88;100.00
11448;BME280;43755;49.736;8.734;2024-02-26T04:34:14;96030.19;;;5.83;100.00
11448;BME280;43755;49.736;8.734;2024-02-26T04:36:16;96036.50;;;5.79;100.00
11448;BME280;43755;49.736;8.734;2024-02-26T04:38:17;96031.34;;;5.77;100.00
11448;BME280;43755;49.736;8.734;2024-02-26T04:40:19;96030.59;;;5.75;100.00
11448;BME280;43755;49.736;8.734;2024-02-26T04:42:19;96026.28;;;5.74;100.00
11448;BME280;43755;49.736;8.734;2024-02-26T04:44:21;96020.50;;;5.68;100.00
11448;BME280;43755;49.736;8.734;2024-02-26T04:46:22;96015.34;;;5.66;100.00
11448;BME280;43755;49.736;8.734;2024-02-26T04:48:27;96019.59;;;5.69;100.00
11448;BME280;43755;49.736;8.734;2024-02-26T04:50:28;96020.00;;;5.61;100.00
11448;BME280;43755;49.736;8.734;2024-02-26T04:52:30;96008.75;;;5.59;100.00
11448;BME280;43755;49.736;8.734;2024-02-26T04:54:31;96016.44;;;5.78;100.00
11448;BME280;43755;49.736;8.734;2024-02-26T04:56:32;96010.78;;;5.86;100.00
11448;BME280;43755;49.736;8.734;2024-02-26T04:58:34;96006.16;;;5.91;100.00
11448;BME280;43755;49.736;8.734;2024-02-26T05:00:35;96007.59;;;5.96;100.00
11448;BME280;43755;49.736;8.734;2024-02-26T05:02:37;96009.88;;;6.02;100.00
11448;BME280;43755;49.736;8.734;2024-02-26T05:04:40;96013.31;;;6.18;100.00
11448;BME280;43755;49.736;8.734;2024-02-26T05:06:41;96011.47;;;6.21;100.00
11448;BME280;43755;49.736;8.734;2024-02-26T05:08:42;96015.59;;;6.25;100.00
11448;BME280;43755;49.736;8.734;2024-02-26T05:10:45;96013.06;;;6.23;100.00
11448;BME280;43755;49.736;8.734;2024-02-26T05:12:46;96008.91;;;6.19;100.00
11448;BME280;43755;49.736;8.734;2024-02-26T05:14:48;96005.19;;;6.23;100.00
11448;BME280;43755;49.736;8.734;2024-02-26T05:16:48;96002.31;;;6.28;100.00
11448;BME280;43755;49.736;8.734;2024-02-26T05:18:50;96007.47;;;6.29;100.00
11448;BME280;43755;49.736;8.734;2024-02-26T05:20:52;96007.91;;;6.22;100.00
11448;BME280;43755;49.736;8.734;2024-02-26T05:22:54;96010.34;;;6.25;100.00
11448;BME280;43755;49.736;8.734;2024-02-26T05:24:55;96005.28;;;6.22;100.00
11448;BME280;43755;49.736;8.734;2024-02-26T05:26:56;96007.41;;;6.15;100.00
11448;BME280;43755;49.736;8.734;2024-02-26T05:28:58;96010.94;;;6.14;100.00
11448;BME280;43755;49.736;8.734;2024-02-26T05:31:00;95999.59;;;6.13;100.00
11448;BME280;43755;49.736;8.734;2024-02-26T05:33:01;96009.19;;;6.14;100.00
11448;BME280;43755;49.736;8.734;2024-02-26T05:35:03;96008.75;;;6.22;100.00
11448;BME280;43755;49.736;8.734;2024-02-26T05:37:06;96016.19;;;6.14;100.00
11448;BME280;43755;49.736;8.734;2024-02-26T05:39:08;96012.38;;;6.20;100.00
11448;BME280;43755;49.736;8.734;2024-02-26T05:41:12;96012.22;;;6.23;100.00
11448;BME280;43755;49.736;8.734;2024-02-26T05:43:12;96011.03;;;6.28;100.00
11448;BME280;43755;49.736;8.734;2024-02-26T05:45:15;96024.50;;;6.22;100.00
11448;BME280;43755;49.736;8.734;2024-02-26T05:47:17;96018.06;;;6.28;100.00
11448;BME280;43755;49.736;8.734;2024-02-26T05:49:18;96022.09;;;6.33;100.00
11448;BME280;43755;49.736;8.734;2024-02-26T05:51:19;96020.50;;;6.31;100.00
11448;BME280;43755;49.736;8.734;2024-02-26T05:53:22;96016.34;;;6.27;100.00
11448;BME280;43755;49.736;8.734;2024-02-26T05:55:23;96018.97;;;6.27;100.00
11448;BME280;43755;49.736;8.734;2024-02-26T05:57:24;96024.06;;;6.30;100.00
11448;BME280;43755;49.736;8.734;2024-02-26T05:59:26;96019.16;;;6.24;100.00
11448;BME280;43755;49.736;8.734;2024-02-26T06:01:27;96014.84;;;6.23;100.00
11448;BME280;43755;49.736;8.734;2024-02-26T06:03:29;96024.28;;;6.11;100.00
11448;BME280;43755;49.736;8.734;2024-02-26T06:05:30;96029.00;;;6.04;100.00
11448;BME280;43755;49.736;8.734;2024-02-26T06:07:32;96036.28;;;6.15;100.00
11448;BME280;43755;49.736;8.734;2024-02-26T06:09:34;96027.47;;;6.16;100.00
11448;BME280;43755;49.736;8.734;2024-02-26T06:11:36;96032.81;;;6.14;100.00
11448;BME280;43755;49.736;8.734;2024-02-26T06:13:37;96034.00;;;6.09;100.00
11448;BME280;43755;49.736;8.734;2024-02-26T06:15:39;96050.59;;;6.09;100.00
11448;BME280;43755;49.736;8.734;2024-02-26T06:17:40;96048.91;;;6.08;100.00
11448;BME280;43755;49.736;8.734;2024-02-26T06:19:42;96050.66;;;6.08;100.00
11448;BME280;43755;49.736;8.734;2024-02-26T06:21:43;96056.84;;;6.07;100.00
11448;BME280;43755;49.736;8.734;2024-02-26T06:23:44;96061.59;;;6.16;100.00
11448;BME280;43755;49.736;8.734;2024-02-26T06:25:47;96061.75;;;6.13;100.00
11448;BME280;43755;49.736;8.734;2024-02-26T06:27:49;96064.31;;;6.14;100.00
11448;BME280;43755;49.736;8.734;2024-02-26T06:29:49;96062.09;;;6.23;100.00
11448;BME280;43755;49.736;8.734;2024-02-26T06:31:51;96067.63;;;6.18;100.00
11448;BME280;43755;49.736;8.734;2024-02-26T06:33:52;96063.19;;;6.18;100.00
11448;BME280;43755;49.736;8.734;2024-02-26T06:35:52;96072.88;;;6.18;100.00
11448;BME280;43755;49.736;8.734;2024-02-26T06:37:54;96069.22;;;6.21;100.00
11448;BME280;43755;49.736;8.734;2024-02-26T06:39:56;96067.84;;;6.13;100.00
11448;BME280;43755;49.736;8.734;2024-02-26T06:41:58;96080.25;;;6.11;100.00
11448;BME280;43755;49.736;8.734;2024-02-26T06:44:01;96073.88;;;6.15;100.00
11448;BME280;43755;49.736;8.734;2024-02-26T06:46:03;96084.19;;;6.18;100.00
11448;BME280;43755;49.736;8.734;2024-02-26T06:48:05;96084.19;;;6.18;100.00
11448;BME280;43755;49.736;8.734;2024-02-26T06:50:07;96088.19;;;6.26;100.00
11448;BME280;43755;49.736;8.734;2024-02-26T06:52:09;96094.19;;;6.28;100.00
11448;BME280;43755;49.736;8.734;2024-02-26T06:54:10;96096.91;;;6.26;100.00
11448;BME280;43755;49.736;8.734;2024-02-26T06:56:11;96096.91;;;6.26;100.00
11448;BME280;43755;49.736;8.734;2024-02-26T06:58:14;96103.78;;;6.29;100.00
11448;BME280;43755;49.736;8.734;2024-02-26T07:00:15;96109.53;;;6.35;100.00
11448;BME280;43755;49.736;8.734;2024-02-26T07:02:17;96108.69;;;6.35;100.00
11448;BME280;43755;49.736;8.734;2024-02-26T07:04:18;96114.19;;;6.30;100.00
11448;BME280;43755;49.736;8.734;2024-02-26T07:06:19;96120.03;;;6.35;100.00
11448;BME280;43755;49.736;8.734;2024-02-26T07:08:21;96122.75;;;6.34;100.00
11448;BME280;43755;49.736;8.734;2024-02-26T07:10:22;96119.44;;;6.30;100.00
11448;BME280;43755;49.736;8.734;2024-02-26T07:12:23;96126.03;;;6.37;100.00
11448;BME280;43755;49.736;8.734;2024-02-26T07:14:26;96128.00;;;6.34;100.00
11448;BME280;43755;49.736;8.734;2024-02-26T07:16:28;96130.69;;;6.32;100.00
11448;BME280;43755;49.736;8.734;2024-02-26T07:18:29;96129.00;;;6.31;100.00
11448;BME280;43755;49.736;8.734;2024-02-26T07:20:30;96128.91;;;6.33;100.00
11448;BME280;43755;49.736;8.734;2024-02-26T07:22:32;96126.22;;;6.34;100.00
11448;BME280;43755;49.736;8.734;2024-02-26T07:24:33;96133.50;;;6.29;100.00
11448;BME280;43755;49.736;8.734;2024-02-26T07:26:35;96129.59;;;6.36;100.00
11448;BME280;43755;49.736;8.734;2024-02-26T07:28:36;96132.31;;;6.35;100.00
11448;BME280;43755;49.736;8.734;2024-02-26T07:30:39;96133.41;;;6.31;100.00
11448;BME280;43755;49.736;8.734;2024-02-26T07:32:40;96125.44;;;6.32;100.00
11448;BME280;43755;49.736;8.734;2024-02-26T07:34:41;96130.19;;;6.26;100.00
11448;BME280;43755;49.736;8.734;2024-02-26T07:36:44;96138.25;;;6.23;100.00
11448;BME280;43755;49.736;8.734;2024-02-26T07:38:46;96129.00;;;6.15;100.00
11448;BME280;43755;49.736;8.734;2024-02-26T07:40:47;96136.09;;;6.13;100.00
11448;BME280;43755;49.736;8.734;2024-02-26T07:42:48;96125.94;;;6.07;100.00
11448;BME280;43755;49.736;8.734;2024-02-26T07:44:50;96137.63;;;6.02;100.00
11448;BME280;43755;49.736;8.734;2024-02-26T07:46:52;96135.78;;;6.04;100.00
11448;BME280;43755;49.736;8.734;2024-02-26T07:48:54;96146.28;;;6.04;100.00
11448;BME280;43755;49.736;8.734;2024-02-26T07:50:54;96145.94;;;6.10;100.00
11448;BME280;43755;49.736;8.734;2024-02-26T07:52:56;96149.16;;;5.99;100.00
11448;BME280;43755;49.736;8.734;2024-02-26T07:54:58;96149.56;;;5.92;100.00
11448;BME280;43755;49.736;8.734;2024-02-26T07:57:00;96160.72;;;5.95;100.00
11448;BME280;43755;49.736;8.734;2024-02-26T07:59:01;96160.84;;;5.94;100.00
11448;BME280;43755;49.736;8.734;2024-02-26T08:01:03;96149.75;;;6.04;100.00
11448;BME280;43755;49.736;8.734;2024-02-26T08:03:06;96149.31;;;5.96;100.00
11448;BME280;43755;49.736;8.734;2024-02-26T08:05:06;96158.28;;;5.92;100.00
11448;BME280;43755;49.736;8.734;2024-02-26T08:07:08;96149.75;;;6.04;100.00
11448;BME280;43755;49.736;8.734;2024-02-26T08:09:09;96148.13;;;6.02;100.00
11448;BME280;43755;49.736;8.734;2024-02-26T08:11:14;96157.63;;;6.04;100.00
11448;BME280;43755;49.736;8.734;2024-02-26T08:13:15;96156.31;;;5.96;100.00
11448;BME280;43755;49.736;8.734;2024-02-26T08:15:17;96151.94;;;5.96;100.00
